Terminal Aerodrome Forecast
Issued by NWS

Home | Current Version | Previous Version | Text Only | Print | Product List | Glossary On
Versions: 1 2 3 4 5 6 7 8 9 10 11 12 13 14 15 16 17 18 19 20 21 22 23 24
000
FTUS45 KLKN 291700
TAFEKO
TAF
KEKO 291720Z 2918/3018 18007KT P6SM VCSH SCT100 BKN150
     FM292000 15008KT P6SM VCTS BKN090CB
      TEMPO 2920/2924 VRB15G35KT -TSRA BKN060CB
     FM300000 05008KT P6SM VCTS SCT060CB OVC100
      TEMPO 3000/3003 VRB15G25KT -TSRA BKN060CB
     FM300400 VRB05KT P6SM SCT080 BKN120=

USA.gov is the U.S. government's official web portal to all federal, state and local government web resources and services.